aviador You're here:

KLZU Decoded Metar

LAWRENCEVILLE in GA, USA
Report Time2018-04-26 12:56:00
UTC Time2018-04-26 13:20:59
Flight Rules vfr VFR
Wind070° at 05 kt
W.Decomp.*RWY 07: 5.0 kt HW 0.4 kt RCW
W.Rank070° ranks 7
Current wind is below 070° avg. (7.1)
Visibility9999 m
Phenomena:N/A
Clouds:N/A
Expected CloudBase > 2,000 ft AGL from Temp-Dew spread
CeilingNone
Temp15°C (ISA +2)
Dew Point10°C (72% RH)
AAT13.2°C
QNH1012 hPa
Density Alt1,512 ft
Elevation1,060 ft
Report Wrong Elevation
Raw Report
METAR KLZU 261256Z 07005KT 10SM CLR 15/10 A2988 RMK AO2 SLP113 T01500100
$=

Extra information for KLZU:More info

Metar Taf Metar & Taf Last 4 Metars F.Rules Stats Wind Profile Meteogram Temp Stats Airport Information Weather charts Add Link Nearby VenuesMetar ALERT Operation Metar Decoded Social comments

AIRNAV info for KLZU